createdAt,value
2022-12-13T00:30:10.968Z,0
2022-12-13T00:30:51.281Z,0
2022-12-13T00:32:12.273Z,0
2022-12-13T00:32:52.671Z,0
2022-12-13T00:33:33.146Z,0
2022-12-13T00:34:13.641Z,0
2022-12-13T00:34:54.092Z,0
2022-12-13T00:35:34.592Z,0
2022-12-13T00:36:15.066Z,0
2022-12-13T00:43:40.406Z,0
2022-12-13T00:44:20.934Z,0
2022-12-13T00:45:01.452Z,0
2022-12-13T00:45:42.015Z,0
2022-12-13T00:46:22.420Z,0
2022-12-13T00:47:02.878Z,0
2022-12-13T00:47:43.365Z,0
2022-12-13T00:48:23.869Z,0
2022-12-13T00:49:04.371Z,0
2022-12-13T00:49:44.865Z,0
2022-12-13T00:50:25.358Z,0
2022-12-13T00:57:10.300Z,0
2022-12-13T00:57:50.800Z,0
2022-12-13T00:58:31.883Z,0
2022-12-13T00:59:11.757Z,0
2022-12-13T00:59:52.215Z,0
2022-12-13T01:00:32.714Z,0
2022-12-13T01:01:13.258Z,0
2022-12-13T01:01:53.773Z,0
2022-12-13T01:02:34.212Z,0
2022-12-13T01:03:14.727Z,0
2022-12-13T01:03:55.161Z,0
2022-12-13T01:10:40.508Z,0
2022-12-13T01:11:21.006Z,0
2022-12-13T01:12:01.471Z,0
2022-12-13T01:12:41.982Z,0
2022-12-13T01:13:22.414Z,0
2022-12-13T01:14:02.958Z,0
2022-12-13T01:14:43.378Z,0
2022-12-13T01:15:23.896Z,0
2022-12-13T01:16:04.409Z,0
2022-12-13T01:17:25.360Z,0
2022-12-13T01:24:50.653Z,0
2022-12-13T01:25:31.132Z,0
2022-12-13T01:26:11.604Z,0
2022-12-13T01:26:52.077Z,0
2022-12-13T01:27:32.579Z,0
2022-12-13T01:28:13.113Z,0
2022-12-13T01:28:54.345Z,0
2022-12-13T01:29:34.844Z,0
2022-12-13T01:30:15.336Z,0
2022-12-13T01:37:00.214Z,0
2022-12-13T01:37:40.679Z,0
2022-12-13T01:38:21.216Z,0
2022-12-13T01:39:01.730Z,0
2022-12-13T01:39:42.162Z,0
2022-12-13T01:40:22.611Z,0
2022-12-13T01:41:03.134Z,0
2022-12-13T01:41:43.653Z,0
2022-12-13T01:42:24.073Z,0
2022-12-13T01:43:14.386Z,0
2022-12-13T01:43:45.230Z,0
2022-12-13T01:44:25.564Z,0
2022-12-13T01:51:10.414Z,0
2022-12-13T01:51:50.884Z,0
2022-12-13T01:52:31.356Z,0
2022-12-13T01:53:11.879Z,0
2022-12-13T01:53:52.359Z,0
2022-12-13T01:54:33.196Z,0
2022-12-13T01:55:13.327Z,0
2022-12-13T01:55:53.802Z,0
2022-12-13T01:56:34.273Z,0
2022-12-13T01:57:14.762Z,0
2022-12-13T01:57:55.259Z,0
2022-12-13T02:04:44.056Z,0
2022-12-13T02:05:20.745Z,0
2022-12-13T02:06:01.187Z,0
2022-12-13T02:06:41.672Z,0
2022-12-13T02:07:22.771Z,0
2022-12-13T02:08:02.717Z,0
2022-12-13T02:08:43.178Z,0
2022-12-13T02:09:23.671Z,0
2022-12-13T02:10:04.211Z,0
2022-12-13T02:10:44.667Z,0
2022-12-13T02:11:25.158Z,0
2022-12-13T02:18:50.425Z,0
2022-12-13T02:19:30.886Z,0
2022-12-13T02:20:11.372Z,0
2022-12-13T02:20:51.876Z,0
2022-12-13T02:21:32.427Z,0
2022-12-13T02:22:12.860Z,0
2022-12-13T02:22:53.318Z,0
2022-12-13T02:23:33.777Z,0
2022-12-13T02:24:14.271Z,0
2022-12-13T02:24:54.707Z,0
2022-12-13T02:25:35.203Z,0
2022-12-13T02:33:00.525Z,0
2022-12-13T02:33:41.009Z,0
2022-12-13T02:34:21.539Z,0
2022-12-13T02:35:02.004Z,0
2022-12-13T02:35:42.501Z,0
2022-12-13T02:37:03.397Z,0
2022-12-13T02:37:43.877Z,0
2022-12-13T02:38:24.775Z,0
2022-12-13T02:39:04.863Z,0
2022-12-13T02:39:45.367Z,0
2022-12-13T02:47:12.470Z,0
2022-12-13T02:47:51.110Z,0
2022-12-13T02:48:31.590Z,0
2022-12-13T02:49:12.058Z,0
2022-12-13T02:49:52.563Z,0
2022-12-13T02:50:33.024Z,0
2022-12-13T02:51:13.496Z,0
2022-12-13T02:51:53.994Z,0
2022-12-13T02:52:34.460Z,0
2022-12-13T02:53:14.915Z,0
2022-12-13T02:53:55.389Z,0
2022-12-13T03:00:40.319Z,0
2022-12-13T03:01:28.237Z,0
2022-12-13T03:02:09.981Z,0
2022-12-13T03:02:41.879Z,0
2022-12-13T03:03:22.324Z,0
2022-12-13T03:04:02.724Z,0
2022-12-13T03:04:43.214Z,0
2022-12-13T03:05:23.699Z,0
2022-12-13T03:06:04.181Z,0
2022-12-13T03:06:44.692Z,0
2022-12-13T03:07:25.176Z,0
2022-12-13T03:14:50.498Z,0
2022-12-13T03:15:30.994Z,0
2022-12-13T03:16:11.485Z,0
2022-12-13T03:16:52.000Z,0
2022-12-13T03:17:32.438Z,0
2022-12-13T03:18:12.905Z,0
2022-12-13T03:18:53.410Z,0
2022-12-13T03:19:33.907Z,0
2022-12-13T03:20:22.579Z,0
2022-12-13T03:20:54.891Z,0
2022-12-13T03:21:35.341Z,0
2022-12-13T03:29:00.596Z,0
2022-12-13T03:29:41.085Z,0
2022-12-13T03:32:09.639Z,0
2022-12-13T03:32:50.287Z,0
2022-12-13T03:33:30.709Z,0
2022-12-13T03:34:11.253Z,0
2022-12-13T03:34:53.449Z,0
2022-12-13T03:35:33.937Z,0
2022-12-13T03:36:12.683Z,0
2022-12-13T03:36:53.158Z,0
2022-12-13T03:38:21.624Z,0
2022-12-13T03:38:54.630Z,0
2022-12-13T03:45:39.691Z,0
2022-12-13T03:46:20.239Z,0
2022-12-13T03:47:01.047Z,0
2022-12-13T03:47:41.352Z,0
2022-12-13T03:48:23.354Z,0
2022-12-13T03:49:03.413Z,0
2022-12-13T03:49:42.888Z,0
2022-12-13T03:50:25.958Z,0
2022-12-13T03:51:03.858Z,0
2022-12-13T03:51:44.388Z,0
2022-12-13T03:58:35.549Z,0
2022-12-13T03:59:09.834Z,0
2022-12-13T03:59:50.332Z,0
2022-12-13T04:00:30.819Z,0
2022-12-13T04:01:11.322Z,0
2022-12-13T04:01:51.853Z,0
2022-12-13T04:02:32.335Z,0
2022-12-13T04:03:12.863Z,0
2022-12-13T04:03:53.334Z,0
2022-12-13T04:04:33.814Z,0
2022-12-13T04:05:14.662Z,0
2022-12-13T04:11:59.565Z,0
2022-12-13T04:12:42.156Z,0
2022-12-13T04:13:20.571Z,0
2022-12-13T04:14:01.100Z,0
2022-12-13T04:14:41.562Z,0
2022-12-13T04:15:22.016Z,0
2022-12-13T04:16:02.870Z,0
2022-12-13T04:16:43.062Z,0
2022-12-13T04:17:23.535Z,0
2022-12-13T04:18:04.973Z,0
2022-12-13T04:24:49.539Z,0
2022-12-13T04:25:30.004Z,0
2022-12-13T04:26:10.484Z,0
2022-12-13T04:26:51.019Z,0
2022-12-13T04:27:31.453Z,0
2022-12-13T04:28:11.970Z,0
2022-12-13T04:28:54.609Z,0
2022-12-13T04:29:33.709Z,0
2022-12-13T04:30:13.478Z,0
2022-12-13T04:31:34.486Z,0
2022-12-13T04:36:34.950Z,0
2022-12-13T04:37:15.266Z,0
2022-12-13T04:37:55.736Z,0
2022-12-13T04:38:36.200Z,0
2022-12-13T04:39:21.775Z,0
2022-12-13T04:40:00.381Z,0
2022-12-13T04:40:37.716Z,0
2022-12-13T04:41:18.182Z,0
2022-12-13T04:41:58.694Z,0
2022-12-13T04:42:39.170Z,0
2022-12-13T04:43:19.682Z,0
2022-12-13T04:50:04.499Z,0
2022-12-13T04:50:45.029Z,0
2022-12-13T04:51:25.521Z,0
2022-12-13T04:52:06.056Z,0
2022-12-13T04:52:46.482Z,0
2022-12-13T04:53:26.989Z,0
2022-12-13T04:54:23.798Z,0
2022-12-13T04:54:48.061Z,0
2022-12-13T04:55:28.529Z,0
2022-12-13T04:56:49.540Z,0
2022-12-13T05:03:34.407Z,0
2022-12-13T05:04:14.918Z,0
2022-12-13T05:04:55.365Z,0
2022-12-13T05:05:35.860Z,0
2022-12-13T05:06:26.502Z,0
2022-12-13T05:06:56.900Z,0
2022-12-13T05:07:41.835Z,0
2022-12-13T05:08:17.922Z,0
2022-12-13T05:09:00.573Z,0
2022-12-13T05:09:38.937Z,0
2022-12-13T05:10:33.735Z,0
2022-12-13T05:17:04.545Z,0
2022-12-13T05:17:45.019Z,0
2022-12-13T05:18:25.545Z,0
2022-12-13T05:19:06.045Z,0
2022-12-13T05:19:46.544Z,0
2022-12-13T05:20:27.074Z,0
2022-12-13T05:21:08.363Z,0
2022-12-13T05:21:48.847Z,0
2022-12-13T05:22:29.341Z,0
2022-12-13T05:29:31.156Z,0
2022-12-13T05:30:11.661Z,0
2022-12-13T05:30:52.204Z,0
2022-12-13T05:31:32.726Z,0
2022-12-13T05:32:13.301Z,0
2022-12-13T05:32:53.888Z,0
2022-12-13T05:33:34.406Z,0
2022-12-13T05:34:14.896Z,0
2022-12-13T05:34:55.434Z,0
2022-12-13T05:35:36.050Z,0
2022-12-13T05:42:21.047Z,0
2022-12-13T05:43:02.121Z,0
2022-12-13T05:43:43.660Z,0
2022-12-13T05:44:22.562Z,0
2022-12-13T05:45:03.107Z,0
2022-12-13T05:45:43.630Z,0
2022-12-13T05:46:24.176Z,0
2022-12-13T05:47:04.618Z,0
2022-12-13T05:47:45.147Z,0
2022-12-13T05:48:25.586Z,0
2022-12-13T05:49:06.131Z,0
2022-12-13T05:52:30.598Z,0
2022-12-13T05:53:05.428Z,0
2022-12-13T06:32:34.010Z,0
2022-12-13T06:33:14.351Z,0
2022-12-13T06:33:54.796Z,0
2022-12-13T06:34:35.744Z,0
2022-12-13T06:35:27.756Z,0
2022-12-13T06:35:56.270Z,0
2022-12-13T06:36:36.676Z,0
2022-12-13T06:37:17.161Z,0
2022-12-13T06:38:01.019Z,0
2022-12-13T06:38:43.061Z,0
2022-12-13T06:39:18.646Z,0
2022-12-13T06:46:03.627Z,0
2022-12-13T06:46:44.082Z,0
2022-12-13T06:47:31.604Z,0
2022-12-13T06:48:05.269Z,0
2022-12-13T06:48:45.720Z,0
2022-12-13T06:49:26.236Z,0
2022-12-13T06:50:06.709Z,0
2022-12-13T06:50:47.168Z,4
2022-12-13T06:51:32.749Z,0
2022-12-13T06:52:08.249Z,0
2022-12-13T06:59:33.657Z,4
2022-12-13T07:00:14.161Z,0
2022-12-13T07:00:54.718Z,4
2022-12-13T07:01:37.183Z,4
2022-12-13T07:02:25.423Z,4
2022-12-13T07:02:56.257Z,4
2022-12-13T07:03:36.701Z,4
2022-12-13T07:04:28.704Z,4
2022-12-13T07:04:57.713Z,8
2022-12-13T07:05:38.216Z,8
2022-12-13T07:06:18.655Z,8
2022-12-13T07:12:23.533Z,16
2022-12-13T07:13:03.975Z,16
2022-12-13T07:13:44.506Z,20
2022-12-13T07:14:25.000Z,20
2022-12-13T07:15:05.560Z,24
2022-12-13T07:15:46.178Z,24
2022-12-13T07:16:26.744Z,28
2022-12-13T07:17:07.223Z,28
2022-12-13T07:17:47.846Z,28
2022-12-13T07:18:28.380Z,32
2022-12-13T07:25:26.604Z,52
2022-12-13T07:25:54.406Z,52
2022-12-13T07:26:34.901Z,56
2022-12-13T07:27:15.436Z,60
2022-12-13T07:27:55.875Z,64
2022-12-13T07:28:36.365Z,64
2022-12-13T07:29:22.068Z,64
2022-12-13T07:29:58.024Z,72
2022-12-13T07:30:40.802Z,76
2022-12-13T07:36:43.349Z,104
2022-12-13T07:37:29.703Z,108
2022-12-13T07:38:04.373Z,112
2022-12-13T07:38:45.343Z,120
2022-12-13T07:39:26.181Z,120
2022-12-13T07:40:06.813Z,124
2022-12-13T07:40:47.349Z,128
2022-12-13T07:41:27.935Z,136
2022-12-13T07:42:08.433Z,136
2022-12-13T07:48:13.411Z,188
2022-12-13T07:48:53.960Z,196
2022-12-13T07:49:34.437Z,200
2022-12-13T07:50:24.453Z,208
2022-12-13T07:50:55.615Z,212
2022-12-13T07:51:36.224Z,220
2022-12-13T07:52:16.721Z,224
2022-12-13T07:52:57.429Z,228
2022-12-13T07:53:38.002Z,236
2022-12-13T07:54:18.934Z,240
2022-12-13T08:00:23.725Z,304
2022-12-13T08:01:04.270Z,304
2022-12-13T08:01:44.913Z,312
2022-12-13T08:02:25.557Z,320
2022-12-13T08:03:06.025Z,324
2022-12-13T08:03:46.554Z,332
2022-12-13T08:04:27.210Z,340
2022-12-13T08:05:48.367Z,356
2022-12-13T08:12:33.458Z,420
2022-12-13T08:13:14.005Z,428
2022-12-13T08:13:54.498Z,432
2022-12-13T08:14:35.058Z,440
2022-12-13T08:15:15.588Z,448
2022-12-13T08:15:56.123Z,460
2022-12-13T08:16:36.675Z,464
2022-12-13T08:17:17.209Z,476
2022-12-13T08:17:57.730Z,488
2022-12-13T08:18:38.267Z,492
2022-12-13T08:24:03.465Z,528
2022-12-13T08:24:44.015Z,544
2022-12-13T08:25:24.560Z,556
2022-12-13T08:26:04.968Z,576
2022-12-13T08:26:45.490Z,568
2022-12-13T08:27:26.032Z,568
2022-12-13T08:28:47.207Z,604
2022-12-13T08:29:32.949Z,620
2022-12-13T08:30:08.281Z,620
2022-12-13T08:36:13.476Z,664
2022-12-13T08:36:54.079Z,676
2022-12-13T08:37:34.610Z,688
2022-12-13T08:38:15.203Z,688
2022-12-13T08:38:57.452Z,696
2022-12-13T08:39:38.024Z,692
2022-12-13T08:40:18.623Z,704
2022-12-13T08:45:54.821Z,688
2022-12-13T08:46:35.575Z,688
2022-12-13T08:47:22.792Z,620
2022-12-13T08:47:56.618Z,552
2022-12-13T08:48:43.923Z,512
2022-12-13T08:49:19.296Z,524
2022-12-13T08:52:45.570Z,740
2022-12-13T08:53:28.029Z,704
2022-12-13T08:54:10.190Z,644
2022-12-13T08:57:26.308Z,724
2022-12-13T09:00:56.191Z,772
2022-12-13T09:01:36.722Z,796
2022-12-13T09:02:17.255Z,800
2022-12-13T09:02:57.747Z,732
2022-12-13T09:03:38.308Z,748
2022-12-13T09:04:19.000Z,768
2022-12-13T09:04:59.513Z,824
2022-12-13T09:05:40.163Z,836
2022-12-13T09:11:44.911Z,744
2022-12-13T09:12:30.156Z,748
2022-12-13T09:13:11.372Z,772
2022-12-13T09:13:46.619Z,776
2022-12-13T09:14:27.190Z,792
2022-12-13T09:15:22.078Z,816
2022-12-13T09:15:48.275Z,820
2022-12-13T09:16:28.950Z,860
2022-12-13T09:17:09.765Z,868
2022-12-13T09:17:52.143Z,868
2022-12-13T09:25:36.450Z,988
2022-12-13T09:26:14.975Z,984
2022-12-13T09:26:57.132Z,904
2022-12-13T09:27:39.486Z,852
2022-12-13T09:28:15.384Z,808
2022-12-13T09:28:55.976Z,908
2022-12-13T09:29:36.542Z,912
2022-12-13T09:30:17.121Z,976
2022-12-13T09:30:57.637Z,996
2022-12-13T09:36:23.187Z,972
2022-12-13T09:37:03.793Z,968
2022-12-13T09:37:46.146Z,960
2022-12-13T09:38:25.429Z,940
2022-12-13T09:39:06.893Z,968
2022-12-13T09:39:46.591Z,1024
2022-12-13T09:40:27.141Z,1052
2022-12-13T09:41:10.250Z,1056
2022-12-13T09:46:34.581Z,1048
2022-12-13T09:47:14.031Z,1040
2022-12-13T09:47:53.858Z,1032
2022-12-13T09:48:35.181Z,1016
2022-12-13T09:49:15.025Z,1008
2022-12-13T09:49:55.693Z,1000
2022-12-13T09:50:36.996Z,988
2022-12-13T09:51:28.492Z,820
2022-12-13T09:52:10.439Z,804
2022-12-13T09:52:37.985Z,868
2022-12-13T09:58:43.073Z,880
2022-12-13T09:59:23.628Z,892
2022-12-13T10:00:04.160Z,904
2022-12-13T10:00:44.820Z,872
2022-12-13T10:01:25.927Z,848
2022-12-13T10:02:06.452Z,844
2022-12-13T10:02:46.913Z,856
2022-12-13T10:03:27.520Z,844
2022-12-13T10:04:08.070Z,868
2022-12-13T10:10:13.174Z,936
2022-12-13T10:10:53.550Z,960
2022-12-13T10:11:34.211Z,972
2022-12-13T10:12:14.802Z,956
2022-12-13T10:12:55.423Z,960
2022-12-13T10:13:35.926Z,952
2022-12-13T10:14:16.471Z,956
2022-12-13T10:15:37.814Z,924
2022-12-13T10:21:02.774Z,896
2022-12-13T10:21:44.012Z,896
2022-12-13T10:22:24.226Z,896
2022-12-13T10:24:15.543Z,900
2022-12-13T10:24:31.315Z,900
2022-12-13T10:25:06.487Z,892
2022-12-13T10:25:47.108Z,908
2022-12-13T10:26:27.699Z,884
2022-12-13T10:32:37.293Z,648
2022-12-13T10:33:13.554Z,700
2022-12-13T10:33:54.059Z,800
2022-12-13T10:34:34.600Z,808
2022-12-13T10:35:15.141Z,804
2022-12-13T10:35:55.706Z,808
2022-12-13T10:36:36.291Z,808
2022-12-13T10:37:16.906Z,792
2022-12-13T10:37:57.378Z,780
2022-12-13T10:38:37.870Z,744
2022-12-13T10:44:02.697Z,772
2022-12-13T10:47:17.451Z,792
2022-12-13T10:48:03.813Z,792
2022-12-13T10:48:39.519Z,800
2022-12-13T10:49:20.390Z,800
2022-12-13T10:50:01.393Z,796
2022-12-13T10:53:27.023Z,788
2022-12-13T10:54:07.997Z,796
2022-12-13T10:54:48.975Z,820
2022-12-13T10:55:30.150Z,844
2022-12-13T10:56:11.199Z,872
2022-12-13T11:02:17.460Z,848
2022-12-13T11:02:58.138Z,832
2022-12-13T11:03:39.639Z,832
2022-12-13T11:04:27.347Z,824
2022-12-13T11:08:17.562Z,780
2022-12-13T11:09:01.615Z,776
2022-12-13T11:09:43.827Z,776
2022-12-13T11:10:27.289Z,760
2022-12-13T11:12:27.249Z,720
2022-12-13T11:13:07.970Z,720
2022-12-13T11:13:49.113Z,728
2022-12-13T11:14:31.570Z,716
2022-12-13T11:15:57.605Z,620
2022-12-13T11:16:38.212Z,560
2022-12-13T11:22:06.928Z,472
2022-12-13T11:22:47.103Z,516
2022-12-13T11:23:27.673Z,576
2022-12-13T11:24:08.133Z,604
2022-12-13T11:24:48.687Z,592
2022-12-13T11:25:29.232Z,660
2022-12-13T11:26:09.775Z,676
2022-12-13T11:26:53.915Z,644
2022-12-13T11:27:30.946Z,632
2022-12-13T11:28:25.634Z,612
2022-12-13T11:33:53.301Z,476
2022-12-13T11:34:34.865Z,536
2022-12-13T11:35:15.384Z,656
2022-12-13T11:35:56.743Z,668
2022-12-13T11:36:38.057Z,648
2022-12-13T11:40:03.335Z,704
2022-12-13T11:40:43.063Z,720
2022-12-13T11:41:31.786Z,724
2022-12-13T11:44:39.184Z,684
2022-12-13T11:45:22.690Z,676
2022-12-13T11:47:33.310Z,648
2022-12-13T11:48:13.962Z,628
2022-12-13T11:48:54.668Z,604
2022-12-13T11:49:35.230Z,508
2022-12-13T11:50:20.590Z,604
2022-12-13T11:50:56.437Z,616
2022-12-13T11:51:36.896Z,616
2022-12-13T11:52:17.515Z,584
2022-12-13T11:52:58.036Z,600
2022-12-13T12:32:59.833Z,396
2022-12-13T12:33:40.218Z,392
2022-12-13T12:34:27.098Z,392
2022-12-13T12:35:01.538Z,384
2022-12-13T12:35:45.760Z,388
2022-12-13T12:36:23.210Z,384
2022-12-13T12:37:03.651Z,384
2022-12-13T12:37:44.440Z,380
2022-12-13T12:43:49.625Z,356
2022-12-13T12:44:31.217Z,356
2022-12-13T12:45:13.786Z,352
2022-12-13T12:45:58.654Z,356
2022-12-13T12:46:42.302Z,360
2022-12-13T12:48:58.804Z,372
2022-12-13T12:49:14.428Z,368
2022-12-13T12:55:19.660Z,388
2022-12-13T12:56:00.275Z,388
2022-12-13T12:56:40.974Z,396
2022-12-13T12:57:21.541Z,408
2022-12-13T12:58:02.124Z,416
2022-12-13T12:58:43.067Z,424
2022-12-13T12:59:23.839Z,440
2022-12-13T13:00:04.414Z,456
2022-12-13T13:07:51.346Z,568
2022-12-13T13:08:28.552Z,576
2022-12-13T13:09:09.356Z,584
2022-12-13T13:09:49.978Z,580
2022-12-13T13:10:31.573Z,576
2022-12-13T13:11:24.187Z,560
2022-12-13T13:16:38.328Z,484
2022-12-13T13:17:18.975Z,476
2022-12-13T13:17:59.456Z,472
2022-12-13T13:19:25.578Z,460
2022-12-13T13:20:11.423Z,452
2022-12-13T13:20:43.592Z,448
2022-12-13T13:26:25.922Z,432
2022-12-13T13:26:47.752Z,432
2022-12-13T13:27:29.696Z,432
2022-12-13T13:28:09.542Z,432
2022-12-13T13:28:50.905Z,432
2022-12-13T13:29:31.416Z,432
2022-12-13T13:30:11.990Z,428
2022-12-13T13:35:00.690Z,416
2022-12-13T13:35:39.927Z,420
2022-12-13T13:36:28.423Z,424
2022-12-13T13:37:01.030Z,428
2022-12-13T13:37:41.518Z,424
2022-12-13T13:40:29.818Z,416
2022-12-13T13:43:42.962Z,424
2022-12-13T13:44:23.485Z,424
2022-12-13T13:45:03.976Z,420
2022-12-13T13:45:45.290Z,420
2022-12-13T13:46:25.780Z,416
2022-12-13T13:47:06.358Z,412
2022-12-13T13:47:46.934Z,412
2022-12-13T13:48:27.457Z,408
2022-12-13T13:56:52.619Z,368
2022-12-13T14:00:16.255Z,348
2022-12-13T14:00:56.736Z,344
2022-12-13T14:01:37.473Z,336
2022-12-13T14:02:18.011Z,336
2022-12-13T14:02:58.500Z,332
2022-12-13T14:03:39.444Z,324
2022-12-13T14:04:19.455Z,320
2022-12-13T14:04:59.976Z,312
2022-12-13T14:06:21.079Z,308
2022-12-13T14:12:25.939Z,316
2022-12-13T14:13:06.455Z,312
2022-12-13T14:14:27.528Z,308
2022-12-13T14:15:10.275Z,304
2022-12-13T14:16:05.874Z,304
2022-12-13T14:19:46.337Z,288
2022-12-13T14:20:27.897Z,284
2022-12-13T14:21:09.297Z,284
2022-12-13T14:21:50.150Z,280
2022-12-13T14:24:35.271Z,268
2022-12-13T14:26:51.459Z,260
2022-12-13T14:27:29.708Z,256
2022-12-13T14:28:10.251Z,252
2022-12-13T14:28:50.805Z,240
2022-12-13T14:29:31.345Z,236
2022-12-13T14:30:17.812Z,232
2022-12-13T14:30:57.025Z,228
2022-12-13T14:31:32.978Z,224
2022-12-13T14:37:38.092Z,200
2022-12-13T14:38:18.563Z,196
2022-12-13T14:38:59.080Z,192
2022-12-13T14:46:23.885Z,156
2022-12-13T14:47:04.412Z,152
2022-12-13T14:47:44.905Z,152
2022-12-13T14:51:18.976Z,132
2022-12-13T14:51:59.515Z,128
2022-12-13T14:52:40.028Z,124
2022-12-13T14:53:20.529Z,124
2022-12-13T14:54:01.147Z,120
2022-12-13T14:54:41.742Z,116
2022-12-13T14:58:12.572Z,104
2022-12-13T14:58:52.900Z,104
2022-12-13T14:59:33.496Z,100
2022-12-13T15:00:14.044Z,96
2022-12-13T15:00:57.242Z,92
2022-12-13T15:04:22.073Z,80
2022-12-13T15:05:02.534Z,80
2022-12-13T15:05:47.115Z,76
2022-12-13T15:08:10.576Z,68
2022-12-13T15:08:44.195Z,64
2022-12-13T15:09:24.702Z,60
2022-12-13T15:10:05.231Z,60
2022-12-13T15:10:48.168Z,60
2022-12-13T15:18:02.636Z,40
2022-12-13T15:18:43.224Z,36
2022-12-13T15:19:31.278Z,36
2022-12-13T15:20:04.533Z,36
2022-12-13T15:20:44.895Z,32
2022-12-13T15:21:25.413Z,32
2022-12-13T15:22:07.207Z,28
2022-12-13T15:28:16.831Z,20
2022-12-13T15:28:53.716Z,16
2022-12-13T15:29:34.203Z,20
2022-12-13T15:30:14.767Z,16
2022-12-13T15:30:55.473Z,16
2022-12-13T15:31:36.039Z,16
2022-12-13T15:32:16.483Z,16
2022-12-13T15:32:56.975Z,16
2022-12-13T15:33:44.295Z,12
2022-12-13T15:36:22.540Z,12
2022-12-13T15:37:03.077Z,8
2022-12-13T15:37:44.426Z,8
2022-12-13T15:38:28.350Z,4
2022-12-13T15:39:05.874Z,8
2022-12-13T15:40:26.961Z,4
2022-12-13T15:41:07.667Z,4
2022-12-13T15:41:52.858Z,8
2022-12-13T15:45:36.782Z,4
2022-12-13T15:46:10.702Z,4
2022-12-13T15:46:51.206Z,0
2022-12-13T15:47:34.288Z,0
2022-12-13T15:53:39.519Z,0
2022-12-13T15:54:20.141Z,0
2022-12-13T15:55:00.699Z,0
2022-12-13T15:55:42.209Z,0
2022-12-13T15:56:22.853Z,0
2022-12-13T15:57:03.614Z,0
2022-12-13T15:57:44.231Z,0
2022-12-13T16:01:09.417Z,0
2022-12-13T16:04:23.866Z,0
2022-12-13T16:05:04.930Z,0
2022-12-13T16:05:49.220Z,0
2022-12-13T16:06:30.169Z,0
2022-12-13T16:07:14.329Z,0
2022-12-13T16:10:44.512Z,0
2022-12-13T16:11:25.115Z,0
2022-12-13T16:12:05.609Z,0
2022-12-13T16:12:47.757Z,0
2022-12-13T16:13:27.782Z,0
2022-12-13T16:14:08.783Z,0
2022-12-13T16:14:50.091Z,0
2022-12-13T16:19:35.184Z,0
2022-12-13T16:22:08.237Z,0
2022-12-13T16:22:44.412Z,0
2022-12-13T16:23:27.157Z,0
2022-12-13T16:24:05.487Z,0
2022-12-13T16:24:46.068Z,0
2022-12-13T16:25:26.599Z,0
2022-12-13T16:26:09.070Z,0
2022-12-13T16:26:47.639Z,0
2022-12-13T16:27:28.174Z,0
2022-12-13T16:28:08.559Z,0
2022-12-13T16:34:53.683Z,0
2022-12-13T16:35:34.226Z,0
2022-12-13T16:36:14.690Z,0
2022-12-13T16:36:55.245Z,0
2022-12-13T16:37:35.896Z,0
2022-12-13T16:38:26.209Z,0
2022-12-13T16:38:56.819Z,0
2022-12-13T16:39:37.388Z,0
2022-12-13T16:40:17.891Z,0
2022-12-13T16:40:58.418Z,0
2022-12-13T16:47:48.263Z,0
2022-12-13T16:48:24.655Z,0
2022-12-13T16:49:04.729Z,0
2022-12-13T16:50:25.811Z,0
2022-12-13T16:51:06.321Z,0
2022-12-13T16:51:48.722Z,0
2022-12-13T16:52:27.361Z,0
2022-12-13T16:53:08.470Z,0
2022-12-13T16:53:48.443Z,0
2022-12-13T17:00:33.655Z,0
2022-12-13T17:01:14.103Z,0
2022-12-13T17:01:56.503Z,0
2022-12-13T17:02:36.140Z,0
2022-12-13T17:03:16.625Z,0
2022-12-13T17:03:57.130Z,0
2022-12-13T17:04:37.579Z,0
2022-12-13T17:05:18.089Z,0
2022-12-13T17:05:59.122Z,0
2022-12-13T17:12:04.012Z,0
2022-12-13T17:12:44.653Z,0
2022-12-13T17:13:25.586Z,0
2022-12-13T17:14:05.666Z,0
2022-12-13T17:15:26.871Z,0
2022-12-13T17:16:07.421Z,0
2022-12-13T17:16:48.099Z,0
2022-12-13T17:19:27.534Z,0
2022-12-13T17:20:08.043Z,0
2022-12-13T17:20:48.542Z,0
2022-12-13T17:21:29.058Z,0
2022-12-13T17:22:09.586Z,0
2022-12-13T17:22:50.155Z,0
2022-12-13T17:23:31.114Z,0
2022-12-13T17:24:11.153Z,0
2022-12-13T17:25:32.160Z,0
2022-12-13T17:32:57.668Z,0
2022-12-13T17:33:38.284Z,0
2022-12-13T17:34:18.772Z,0
2022-12-13T17:34:59.441Z,0
2022-12-13T17:35:39.909Z,0
2022-12-13T17:36:20.433Z,0
2022-12-13T17:37:03.254Z,0
2022-12-13T17:37:41.430Z,0
2022-12-13T17:38:21.929Z,0
2022-12-13T17:39:02.492Z,0
2022-12-13T17:46:04.185Z,0
2022-12-13T17:46:44.558Z,0
2022-12-13T17:47:25.091Z,0
2022-12-13T17:48:05.626Z,0
2022-12-13T17:48:46.195Z,0
2022-12-13T17:49:26.716Z,0
2022-12-13T17:50:07.194Z,0
2022-12-13T17:50:47.731Z,0
2022-12-13T17:51:28.273Z,0
2022-12-13T17:52:08.753Z,0
2022-12-13T18:34:50.150Z,0
2022-12-13T18:35:30.625Z,0
2022-12-13T18:36:11.102Z,0
2022-12-13T18:36:51.623Z,0
2022-12-13T18:37:32.152Z,0
2022-12-13T18:38:12.667Z,0
2022-12-13T18:38:53.171Z,0
2022-12-13T18:39:33.638Z,0
2022-12-13T18:40:14.155Z,0
2022-12-13T18:40:55.511Z,0
2022-12-13T18:47:00.065Z,0
2022-12-13T18:47:40.500Z,0
2022-12-13T18:48:21.456Z,0
2022-12-13T18:51:35.459Z,0
2022-12-13T18:52:16.424Z,0
2022-12-13T18:52:57.419Z,0
2022-12-13T18:53:38.395Z,0
2022-12-13T18:54:19.362Z,0
2022-12-13T18:55:00.359Z,0
2022-12-13T18:57:45.241Z,0
2022-12-13T18:58:26.233Z,0
2022-12-13T18:59:07.246Z,0
2022-12-13T18:59:54.414Z,0
2022-12-13T19:00:29.361Z,0
2022-12-13T19:01:10.380Z,0
2022-12-13T19:04:35.344Z,0
2022-12-13T19:05:16.343Z,0
2022-12-13T19:05:57.335Z,0
2022-12-13T19:07:20.069Z,0
2022-12-13T19:10:45.034Z,0
2022-12-13T19:11:26.142Z,0
2022-12-13T19:12:07.181Z,0
2022-12-13T19:12:48.283Z,0
2022-12-13T19:13:29.730Z,0
2022-12-13T19:14:10.263Z,0
2022-12-13T19:17:35.228Z,0
2022-12-13T19:18:16.334Z,0
2022-12-13T19:18:57.321Z,0
2022-12-13T19:20:19.383Z,0
2022-12-13T19:21:00.469Z,0
2022-12-13T19:24:25.461Z,0
2022-12-13T19:25:06.540Z,0
2022-12-13T19:25:48.682Z,0
2022-12-13T19:26:28.549Z,0
2022-12-13T19:27:09.801Z,0
2022-12-13T19:31:16.003Z,0
2022-12-13T19:31:56.933Z,0
2022-12-13T19:32:37.873Z,0
2022-12-13T19:33:18.874Z,0
2022-12-13T19:33:59.847Z,0
2022-12-13T19:38:05.730Z,0
2022-12-13T19:38:46.709Z,0
2022-12-13T19:39:27.821Z,0
2022-12-13T19:40:08.807Z,0
2022-12-13T19:40:49.794Z,0
2022-12-13T19:44:55.850Z,0
2022-12-13T19:45:36.863Z,0
2022-12-13T19:46:17.927Z,0
2022-12-13T19:46:58.855Z,0
2022-12-13T19:47:39.947Z,0
2022-12-13T19:51:05.073Z,0
2022-12-13T19:51:46.138Z,0
2022-12-13T19:52:27.228Z,0
2022-12-13T19:53:08.215Z,0
2022-12-13T19:53:49.205Z,0
2022-12-13T19:54:30.256Z,0
2022-12-13T19:57:15.150Z,0
2022-12-13T19:57:56.172Z,0
2022-12-13T19:58:37.143Z,0
2022-12-13T19:59:18.161Z,0
2022-12-13T19:59:59.154Z,0
2022-12-13T20:00:40.184Z,0
2022-12-13T20:04:05.264Z,0
2022-12-13T20:04:46.254Z,0
2022-12-13T20:05:31.048Z,0
2022-12-13T20:08:15.130Z,0
2022-12-13T20:08:56.138Z,0
2022-12-13T20:09:37.234Z,0
2022-12-13T20:10:18.227Z,0
2022-12-13T20:10:59.410Z,0
2022-12-13T20:11:40.416Z,0
2022-12-13T20:17:12.586Z,0
2022-12-13T20:17:53.275Z,0
2022-12-13T20:18:33.703Z,0
2022-12-13T20:19:14.182Z,0
2022-12-13T20:19:54.780Z,0
2022-12-13T20:21:02.137Z,0
2022-12-13T20:21:16.098Z,0
2022-12-13T20:21:57.134Z,0
2022-12-13T20:22:36.804Z,0
2022-12-13T20:23:17.283Z,0
2022-12-13T20:30:42.679Z,0
2022-12-13T20:31:23.281Z,0
2022-12-13T20:32:03.674Z,0
2022-12-13T20:32:44.140Z,0
2022-12-13T20:33:25.042Z,0
2022-12-13T20:34:05.174Z,0
2022-12-13T20:34:47.352Z,0
2022-12-13T20:35:26.175Z,0
2022-12-13T20:36:47.149Z,0
2022-12-13T20:43:32.362Z,0
2022-12-13T20:44:12.825Z,0
2022-12-13T20:46:13.157Z,0
2022-12-13T20:46:53.577Z,0
2022-12-13T20:47:37.799Z,0
2022-12-13T20:48:14.530Z,0
2022-12-13T20:48:55.060Z,0
2022-12-13T20:49:35.524Z,0
2022-12-13T20:50:16.008Z,0
2022-12-13T20:51:37.012Z,0
2022-12-13T20:52:17.528Z,0
2022-12-13T20:52:58.048Z,0
2022-12-13T20:59:43.031Z,0
2022-12-13T21:00:23.546Z,0
2022-12-13T21:01:04.107Z,0
2022-12-13T21:01:44.627Z,0
2022-12-13T21:02:25.218Z,0
2022-12-13T21:03:05.588Z,0
2022-12-13T21:03:46.096Z,0
2022-12-13T21:04:26.613Z,0
2022-12-13T21:05:07.138Z,0
2022-12-13T21:05:47.626Z,0
2022-12-13T21:13:13.158Z,0
2022-12-13T21:13:53.712Z,0
2022-12-13T21:14:34.151Z,0
2022-12-13T21:15:14.652Z,0
2022-12-13T21:15:55.186Z,0
2022-12-13T21:16:35.669Z,0
2022-12-13T21:17:16.122Z,0